sensor_id;sensor_type;location;lat;lon;timestamp;pressure;altitude;pressure_sealevel;temperature;humidity
58967;BME280;44744;51.894;5.080;2023-07-13T18:48:17;101838.61;;;20.27;54.36
58967;BME280;44744;51.894;5.080;2023-07-13T18:49:19;101835.18;;;20.25;54.45
58967;BME280;44744;51.894;5.080;2023-07-13T18:50:26;101832.74;;;20.26;54.45
58967;BME280;44744;51.894;5.080;2023-07-13T18:51:27;101834.69;;;20.29;54.50
58967;BME280;44744;51.894;5.080;2023-07-13T18:52:28;101833.37;;;20.32;54.70
58967;BME280;44744;51.894;5.080;2023-07-13T18:53:28;101834.71;;;20.33;54.75
58967;BME280;44744;51.894;5.080;2023-07-13T18:54:28;101835.75;;;20.33;54.80
58967;BME280;44744;51.894;5.080;2023-07-13T18:55:29;101833.59;;;20.36;54.76
58967;BME280;44744;51.894;5.080;2023-07-13T18:56:29;101836.78;;;20.38;54.85
58967;BME280;44744;51.894;5.080;2023-07-13T18:57:29;101839.70;;;20.40;54.72
58967;BME280;44744;51.894;5.080;2023-07-13T18:58:29;101839.14;;;20.43;54.79
58967;BME280;44744;51.894;5.080;2023-07-13T18:59:30;101841.09;;;20.45;54.76
58967;BME280;44744;51.894;5.080;2023-07-13T19:00:30;101843.02;;;20.48;54.74
58967;BME280;44744;51.894;5.080;2023-07-13T19:01:33;101844.69;;;20.52;54.79
58967;BME280;44744;51.894;5.080;2023-07-13T19:02:34;101844.08;;;20.55;54.76
58967;BME280;44744;51.894;5.080;2023-07-13T19:03:34;101844.02;;;20.58;54.84
58967;BME280;44744;51.894;5.080;2023-07-13T19:04:34;101845.10;;;20.60;54.90
58967;BME280;44744;51.894;5.080;2023-07-13T19:05:35;101844.10;;;20.64;54.97
58967;BME280;44744;51.894;5.080;2023-07-13T19:06:35;101845.98;;;20.68;54.99
58967;BME280;44744;51.894;5.080;2023-07-13T19:07:35;101845.84;;;20.71;54.98
58967;BME280;44744;51.894;5.080;2023-07-13T19:08:37;101846.79;;;20.75;55.20
58967;BME280;44744;51.894;5.080;2023-07-13T19:09:39;101846.34;;;20.78;55.08
58967;BME280;44744;51.894;5.080;2023-07-13T19:10:39;101846.79;;;20.82;55.03
58967;BME280;44744;51.894;5.080;2023-07-13T19:11:39;101847.81;;;20.85;54.98
58967;BME280;44744;51.894;5.080;2023-07-13T19:12:43;101849.40;;;20.87;54.90
58967;BME280;44744;51.894;5.080;2023-07-13T19:13:43;101849.13;;;20.88;54.91
58967;BME280;44744;51.894;5.080;2023-07-13T19:14:44;101849.34;;;20.90;54.83
58967;BME280;44744;51.894;5.080;2023-07-13T19:15:45;101850.46;;;20.91;54.77
58967;BME280;44744;51.894;5.080;2023-07-13T19:16:45;101851.16;;;20.94;54.84
58967;BME280;44744;51.894;5.080;2023-07-13T19:17:45;101852.13;;;20.95;54.73
58967;BME280;44744;51.894;5.080;2023-07-13T19:18:46;101854.20;;;20.99;54.69
58967;BME280;44744;51.894;5.080;2023-07-13T19:19:46;101851.52;;;21.00;54.72
58967;BME280;44744;51.894;5.080;2023-07-13T19:20:56;101850.23;;;21.01;54.68
58967;BME280;44744;51.894;5.080;2023-07-13T19:21:58;101848.64;;;21.03;54.79
58967;BME280;44744;51.894;5.080;2023-07-13T19:23:01;101846.96;;;21.03;54.76
58967;BME280;44744;51.894;5.080;2023-07-13T19:24:02;101850.44;;;21.05;54.75
58967;BME280;44744;51.894;5.080;2023-07-13T19:25:02;101846.89;;;21.04;54.69
58967;BME280;44744;51.894;5.080;2023-07-13T19:26:53;101847.69;;;21.05;54.67
58967;BME280;44744;51.894;5.080;2023-07-13T19:27:34;101846.79;;;21.06;54.85
58967;BME280;44744;51.894;5.080;2023-07-13T19:28:42;101852.60;;;21.05;54.78
58967;BME280;44744;51.894;5.080;2023-07-13T19:29:43;101851.13;;;21.05;54.77
58967;BME280;44744;51.894;5.080;2023-07-13T19:30:43;101853.23;;;21.06;54.84
58967;BME280;44744;51.894;5.080;2023-07-13T19:31:44;101852.83;;;21.06;54.82
58967;BME280;44744;51.894;5.080;2023-07-13T19:32:45;101854.45;;;21.06;54.81
58967;BME280;44744;51.894;5.080;2023-07-13T19:33:46;101856.09;;;21.06;54.94
58967;BME280;44744;51.894;5.080;2023-07-13T19:34:47;101855.92;;;21.06;55.09
58967;BME280;44744;51.894;5.080;2023-07-13T19:35:47;101856.81;;;21.06;55.13
58967;BME280;44744;51.894;5.080;2023-07-13T19:36:58;101859.20;;;21.06;54.97
58967;BME280;44744;51.894;5.080;2023-07-13T19:37:59;101860.69;;;21.05;55.07
58967;BME280;44744;51.894;5.080;2023-07-13T19:38:59;101861.09;;;21.04;54.99
58967;BME280;44744;51.894;5.080;2023-07-13T19:40:00;101862.64;;;21.03;55.03
58967;BME280;44744;51.894;5.080;2023-07-13T19:41:00;101858.73;;;21.03;55.02
58967;BME280;44744;51.894;5.080;2023-07-13T19:42:20;101861.57;;;21.01;54.94
58967;BME280;44744;51.894;5.080;2023-07-13T19:43:21;101863.90;;;20.99;54.82
58967;BME280;44744;51.894;5.080;2023-07-13T19:44:22;101865.80;;;20.97;54.82
58967;BME280;44744;51.894;5.080;2023-07-13T19:45:23;101863.13;;;20.97;54.89
58967;BME280;44744;51.894;5.080;2023-07-13T19:46:33;101868.00;;;20.97;54.64
58967;BME280;44744;51.894;5.080;2023-07-13T19:47:33;101867.23;;;20.95;54.68
58967;BME280;44744;51.894;5.080;2023-07-13T19:48:34;101865.73;;;20.94;54.53
58967;BME280;44744;51.894;5.080;2023-07-13T19:49:34;101862.67;;;20.92;54.28
58967;BME280;44744;51.894;5.080;2023-07-13T19:50:36;101863.23;;;20.89;54.16
58967;BME280;44744;51.894;5.080;2023-07-13T19:51:37;101864.83;;;20.86;54.11
58967;BME280;44744;51.894;5.080;2023-07-13T19:52:59;101865.33;;;20.81;54.05
58967;BME280;44744;51.894;5.080;2023-07-13T19:54:01;101868.99;;;20.76;54.16
58967;BME280;44744;51.894;5.080;2023-07-13T19:55:09;101868.34;;;20.71;54.25
58967;BME280;44744;51.894;5.080;2023-07-13T19:56:13;101871.19;;;20.69;54.19
58967;BME280;44744;51.894;5.080;2023-07-13T19:57:15;101870.64;;;20.67;54.10
58967;BME280;44744;51.894;5.080;2023-07-13T19:58:21;101873.39;;;20.64;54.13
58967;BME280;44744;51.894;5.080;2023-07-13T19:59:30;101873.86;;;20.62;54.04
58967;BME280;44744;51.894;5.080;2023-07-13T20:00:34;101874.53;;;20.58;53.83
58967;BME280;44744;51.894;5.080;2023-07-13T20:01:34;101875.91;;;20.55;54.06
58967;BME280;44744;51.894;5.080;2023-07-13T20:02:34;101872.61;;;20.51;53.89
58967;BME280;44744;51.894;5.080;2023-07-13T20:03:38;101876.95;;;20.49;53.90
58967;BME280;44744;51.894;5.080;2023-07-13T20:04:38;101876.08;;;20.46;53.88
58967;BME280;44744;51.894;5.080;2023-07-13T20:05:39;101870.56;;;20.43;53.88
58967;BME280;44744;51.894;5.080;2023-07-13T20:06:39;101878.04;;;20.42;53.95
58967;BME280;44744;51.894;5.080;2023-07-13T20:07:52;101877.52;;;20.39;53.77
58967;BME280;44744;51.894;5.080;2023-07-13T20:08:58;101873.73;;;20.37;53.97
58967;BME280;44744;51.894;5.080;2023-07-13T20:09:59;101874.61;;;20.35;53.97
58967;BME280;44744;51.894;5.080;2023-07-13T20:11:00;101873.38;;;20.35;54.01
58967;BME280;44744;51.894;5.080;2023-07-13T20:12:00;101872.86;;;20.34;54.03
58967;BME280;44744;51.894;5.080;2023-07-13T20:13:01;101872.89;;;20.34;54.02
58967;BME280;44744;51.894;5.080;2023-07-13T20:14:04;101875.44;;;20.34;54.25
58967;BME280;44744;51.894;5.080;2023-07-13T20:15:19;101877.77;;;20.34;54.18
58967;BME280;44744;51.894;5.080;2023-07-13T20:16:23;101877.98;;;20.33;54.19
58967;BME280;44744;51.894;5.080;2023-07-13T20:17:31;101880.08;;;20.32;54.19
58967;BME280;44744;51.894;5.080;2023-07-13T20:18:32;101879.38;;;20.32;54.12
58967;BME280;44744;51.894;5.080;2023-07-13T20:19:35;101879.61;;;20.31;54.22
58967;BME280;44744;51.894;5.080;2023-07-13T20:20:37;101880.00;;;20.31;54.12
58967;BME280;44744;51.894;5.080;2023-07-13T20:21:38;101878.94;;;20.30;54.17
58967;BME280;44744;51.894;5.080;2023-07-13T20:22:41;101880.46;;;20.32;54.24
58967;BME280;44744;51.894;5.080;2023-07-13T20:23:42;101880.29;;;20.32;54.23
58967;BME280;44744;51.894;5.080;2023-07-13T20:24:43;101881.94;;;20.31;54.21
58967;BME280;44744;51.894;5.080;2023-07-13T20:25:47;101884.60;;;20.32;54.20
58967;BME280;44744;51.894;5.080;2023-07-13T20:26:47;101879.80;;;20.31;53.95
58967;BME280;44744;51.894;5.080;2023-07-13T20:27:49;101880.20;;;20.31;54.08
58967;BME280;44744;51.894;5.080;2023-07-13T20:28:49;101878.61;;;20.30;54.03
58967;BME280;44744;51.894;5.080;2023-07-13T20:29:49;101879.06;;;20.29;54.04
58967;BME280;44744;51.894;5.080;2023-07-13T20:30:50;101879.88;;;20.28;53.88
58967;BME280;44744;51.894;5.080;2023-07-13T20:31:50;101879.36;;;20.27;54.06
58967;BME280;44744;51.894;5.080;2023-07-13T20:32:51;101879.85;;;20.28;53.97
58967;BME280;44744;51.894;5.080;2023-07-13T20:33:52;101877.40;;;20.27;53.92
58967;BME280;44744;51.894;5.080;2023-07-13T20:34:52;101884.08;;;20.27;54.07
58967;BME280;44744;51.894;5.080;2023-07-13T20:35:54;101885.56;;;20.26;54.00
58967;BME280;44744;51.894;5.080;2023-07-13T20:36:55;101884.34;;;20.26;54.05
58967;BME280;44744;51.894;5.080;2023-07-13T20:37:56;101883.33;;;20.25;54.08
58967;BME280;44744;51.894;5.080;2023-07-13T20:38:57;101885.67;;;20.24;54.12
58967;BME280;44744;51.894;5.080;2023-07-13T20:39:58;101882.52;;;20.24;54.17
58967;BME280;44744;51.894;5.080;2023-07-13T20:40:59;101884.21;;;20.23;54.24
58967;BME280;44744;51.894;5.080;2023-07-13T20:41:59;101885.66;;;20.23;54.31
58967;BME280;44744;51.894;5.080;2023-07-13T20:43:00;101882.63;;;20.23;54.21
58967;BME280;44744;51.894;5.080;2023-07-13T20:44:01;101879.75;;;20.20;54.18
58967;BME280;44744;51.894;5.080;2023-07-13T20:45:01;101881.92;;;20.20;54.19
58967;BME280;44744;51.894;5.080;2023-07-13T20:46:02;101878.19;;;20.17;54.25
58967;BME280;44744;51.894;5.080;2023-07-13T20:47:13;101881.02;;;20.16;54.25
58967;BME280;44744;51.894;5.080;2023-07-13T20:48:27;101881.52;;;20.14;54.03
58967;BME280;44744;51.894;5.080;2023-07-13T20:49:28;101880.27;;;20.11;54.16
58967;BME280;44744;51.894;5.080;2023-07-13T20:50:30;101882.46;;;20.11;54.07
58967;BME280;44744;51.894;5.080;2023-07-13T20:51:31;101880.38;;;20.08;54.11
58967;BME280;44744;51.894;5.080;2023-07-13T20:52:32;101882.71;;;20.05;53.98
58967;BME280;44744;51.894;5.080;2023-07-13T20:53:33;101885.28;;;20.05;54.24
58967;BME280;44744;51.894;5.080;2023-07-13T20:54:40;101882.73;;;20.03;54.20
58967;BME280;44744;51.894;5.080;2023-07-13T20:55:41;101882.46;;;20.02;54.05
58967;BME280;44744;51.894;5.080;2023-07-13T20:56:41;101883.06;;;20.01;54.38
58967;BME280;44744;51.894;5.080;2023-07-13T20:57:45;101882.70;;;20.01;54.38
58967;BME280;44744;51.894;5.080;2023-07-13T20:58:46;101880.19;;;20.01;54.30
58967;BME280;44744;51.894;5.080;2023-07-13T20:59:53;101881.79;;;20.01;54.50
58967;BME280;44744;51.894;5.080;2023-07-13T21:00:56;101880.63;;;19.98;54.47
58967;BME280;44744;51.894;5.080;2023-07-13T21:01:56;101878.73;;;19.97;54.66
58967;BME280;44744;51.894;5.080;2023-07-13T21:03:02;101879.23;;;19.97;54.71
58967;BME280;44744;51.894;5.080;2023-07-13T21:04:06;101880.73;;;19.96;54.60
58967;BME280;44744;51.894;5.080;2023-07-13T21:05:18;101883.17;;;19.95;54.66
58967;BME280;44744;51.894;5.080;2023-07-13T21:06:19;101881.23;;;19.94;54.63
58967;BME280;44744;51.894;5.080;2023-07-13T21:07:20;101880.39;;;19.94;54.88
58967;BME280;44744;51.894;5.080;2023-07-13T21:08:23;101878.15;;;19.92;55.05
58967;BME280;44744;51.894;5.080;2023-07-13T21:09:23;101874.94;;;19.92;55.03
58967;BME280;44744;51.894;5.080;2023-07-13T21:10:26;101879.21;;;19.93;55.14
58967;BME280;44744;51.894;5.080;2023-07-13T21:11:27;101875.95;;;19.93;55.16
58967;BME280;44744;51.894;5.080;2023-07-13T21:12:28;101878.27;;;19.93;55.14
58967;BME280;44744;51.894;5.080;2023-07-13T21:13:28;101874.27;;;19.94;55.14
58967;BME280;44744;51.894;5.080;2023-07-13T21:14:28;101881.79;;;19.94;55.20
58967;BME280;44744;51.894;5.080;2023-07-13T21:15:31;101878.35;;;19.95;55.26
58967;BME280;44744;51.894;5.080;2023-07-13T21:16:32;101877.02;;;19.93;55.28
58967;BME280;44744;51.894;5.080;2023-07-13T21:17:33;101878.95;;;19.94;55.32
58967;BME280;44744;51.894;5.080;2023-07-13T21:18:42;101880.10;;;19.93;55.42
58967;BME280;44744;51.894;5.080;2023-07-13T21:19:43;101881.43;;;19.92;55.24
58967;BME280;44744;51.894;5.080;2023-07-13T21:20:47;101878.66;;;19.91;55.42
58967;BME280;44744;51.894;5.080;2023-07-13T21:21:49;101880.55;;;19.89;55.42
58967;BME280;44744;51.894;5.080;2023-07-13T21:22:50;101882.13;;;19.88;55.42
58967;BME280;44744;51.894;5.080;2023-07-13T21:23:53;101883.50;;;19.86;55.53
58967;BME280;44744;51.894;5.080;2023-07-13T21:24:54;101884.66;;;19.85;55.60
58967;BME280;44744;51.894;5.080;2023-07-13T21:25:56;101885.97;;;19.85;55.67
58967;BME280;44744;51.894;5.080;2023-07-13T21:26:57;101882.65;;;19.83;55.71
58967;BME280;44744;51.894;5.080;2023-07-13T21:27:59;101883.80;;;19.82;55.75
58967;BME280;44744;51.894;5.080;2023-07-13T21:28:59;101886.33;;;19.82;55.59
58967;BME280;44744;51.894;5.080;2023-07-13T21:32:23;101883.44;;;19.82;55.74
58967;BME280;44744;51.894;5.080;2023-07-13T21:33:23;101884.20;;;19.82;55.73
58967;BME280;44744;51.894;5.080;2023-07-13T21:34:23;101886.88;;;19.82;55.63
58967;BME280;44744;51.894;5.080;2023-07-13T21:35:34;101885.63;;;19.82;55.60
58967;BME280;44744;51.894;5.080;2023-07-13T21:36:35;101886.82;;;19.81;55.73
58967;BME280;44744;51.894;5.080;2023-07-13T21:37:36;101888.88;;;19.79;55.64
58967;BME280;44744;51.894;5.080;2023-07-13T21:38:41;101887.59;;;19.77;55.69
58967;BME280;44744;51.894;5.080;2023-07-13T21:39:48;101884.09;;;19.76;55.68
58967;BME280;44744;51.894;5.080;2023-07-13T21:40:52;101884.36;;;19.75;55.78
58967;BME280;44744;51.894;5.080;2023-07-13T21:41:53;101883.05;;;19.73;55.91
58967;BME280;44744;51.894;5.080;2023-07-13T21:42:54;101884.28;;;19.73;55.81
58967;BME280;44744;51.894;5.080;2023-07-13T21:43:54;101884.52;;;19.72;55.80
58967;BME280;44744;51.894;5.080;2023-07-13T21:44:55;101884.08;;;19.71;55.82
58967;BME280;44744;51.894;5.080;2023-07-13T21:45:56;101885.16;;;19.71;55.93
58967;BME280;44744;51.894;5.080;2023-07-13T21:46:57;101884.45;;;19.71;55.90
58967;BME280;44744;51.894;5.080;2023-07-13T21:47:57;101887.57;;;19.70;55.86
58967;BME280;44744;51.894;5.080;2023-07-13T21:48:58;101884.12;;;19.68;55.79
58967;BME280;44744;51.894;5.080;2023-07-13T21:49:58;101885.80;;;19.67;55.97
58967;BME280;44744;51.894;5.080;2023-07-13T21:50:59;101888.56;;;19.67;56.07
58967;BME280;44744;51.894;5.080;2023-07-13T21:51:59;101892.84;;;19.65;56.21
58967;BME280;44744;51.894;5.080;2023-07-13T21:52:59;101895.09;;;19.63;56.17
58967;BME280;44744;51.894;5.080;2023-07-13T21:54:00;101897.52;;;19.62;56.34
58967;BME280;44744;51.894;5.080;2023-07-13T21:55:00;101895.42;;;19.61;56.19
58967;BME280;44744;51.894;5.080;2023-07-13T21:56:02;101894.46;;;19.60;56.28
58967;BME280;44744;51.894;5.080;2023-07-13T21:57:04;101892.58;;;19.59;56.26
58967;BME280;44744;51.894;5.080;2023-07-13T21:58:14;101892.30;;;19.55;56.44
58967;BME280;44744;51.894;5.080;2023-07-13T21:59:18;101897.92;;;19.54;56.51
58967;BME280;44744;51.894;5.080;2023-07-13T22:00:22;101892.35;;;19.55;56.50
58967;BME280;44744;51.894;5.080;2023-07-13T22:01:30;101893.62;;;19.54;56.54
58967;BME280;44744;51.894;5.080;2023-07-13T22:02:32;101891.14;;;19.54;56.73
58967;BME280;44744;51.894;5.080;2023-07-13T22:03:36;101892.21;;;19.54;56.80
58967;BME280;44744;51.894;5.080;2023-07-13T22:04:38;101892.48;;;19.53;56.76
58967;BME280;44744;51.894;5.080;2023-07-13T22:05:39;101893.48;;;19.51;56.83
58967;BME280;44744;51.894;5.080;2023-07-13T22:06:39;101888.71;;;19.51;56.83
58967;BME280;44744;51.894;5.080;2023-07-13T22:07:39;101890.00;;;19.50;57.06
58967;BME280;44744;51.894;5.080;2023-07-13T22:08:40;101887.48;;;19.50;57.15
58967;BME280;44744;51.894;5.080;2023-07-13T22:09:41;101888.61;;;19.49;57.10
58967;BME280;44744;51.894;5.080;2023-07-13T22:10:41;101892.11;;;19.49;57.10
58967;BME280;44744;51.894;5.080;2023-07-13T22:11:43;101889.69;;;19.47;57.20
58967;BME280;44744;51.894;5.080;2023-07-13T22:12:44;101891.26;;;19.45;57.19
58967;BME280;44744;51.894;5.080;2023-07-13T22:13:45;101890.13;;;19.43;57.29
58967;BME280;44744;51.894;5.080;2023-07-13T22:14:48;101890.94;;;19.42;57.26
58967;BME280;44744;51.894;5.080;2023-07-13T22:15:49;101895.44;;;19.42;57.54
58967;BME280;44744;51.894;5.080;2023-07-13T22:16:50;101892.79;;;19.41;57.48
58967;BME280;44744;51.894;5.080;2023-07-13T22:17:51;101893.56;;;19.41;57.57
58967;BME280;44744;51.894;5.080;2023-07-13T22:18:54;101893.96;;;19.40;57.67
58967;BME280;44744;51.894;5.080;2023-07-13T22:19:56;101895.13;;;19.39;57.52
58967;BME280;44744;51.894;5.080;2023-07-13T22:20:56;101893.24;;;19.38;57.76
58967;BME280;44744;51.894;5.080;2023-07-13T22:21:56;101895.86;;;19.36;57.79
58967;BME280;44744;51.894;5.080;2023-07-13T22:22:57;101894.77;;;19.34;57.89
58967;BME280;44744;51.894;5.080;2023-07-13T22:23:57;101897.77;;;19.33;57.88
58967;BME280;44744;51.894;5.080;2023-07-13T22:24:57;101895.37;;;19.31;57.94
58967;BME280;44744;51.894;5.080;2023-07-13T22:25:58;101890.07;;;19.31;58.08
58967;BME280;44744;51.894;5.080;2023-07-13T22:26:59;101888.47;;;19.28;58.12
58967;BME280;44744;51.894;5.080;2023-07-13T22:27:59;101890.56;;;19.26;58.22
58967;BME280;44744;51.894;5.080;2023-07-13T22:29:10;101891.36;;;19.25;58.35
58967;BME280;44744;51.894;5.080;2023-07-13T22:30:13;101892.21;;;19.23;58.35
58967;BME280;44744;51.894;5.080;2023-07-13T22:31:13;101890.23;;;19.21;58.42
58967;BME280;44744;51.894;5.080;2023-07-13T22:32:14;101891.09;;;19.19;58.56
58967;BME280;44744;51.894;5.080;2023-07-13T22:33:18;101891.60;;;19.17;58.69
58967;BME280;44744;51.894;5.080;2023-07-13T22:34:29;101885.62;;;19.16;58.72
58967;BME280;44744;51.894;5.080;2023-07-13T22:35:29;101888.25;;;19.14;58.81
58967;BME280;44744;51.894;5.080;2023-07-13T22:36:32;101888.05;;;19.12;58.88
58967;BME280;44744;51.894;5.080;2023-07-13T22:37:34;101889.13;;;19.12;59.10
58967;BME280;44744;51.894;5.080;2023-07-13T22:38:34;101888.42;;;19.12;59.12
58967;BME280;44744;51.894;5.080;2023-07-13T22:39:38;101888.08;;;19.11;59.23
58967;BME280;44744;51.894;5.080;2023-07-13T22:40:38;101889.72;;;19.11;59.37
58967;BME280;44744;51.894;5.080;2023-07-13T22:41:38;101888.32;;;19.10;59.41
58967;BME280;44744;51.894;5.080;2023-07-13T22:42:38;101889.30;;;19.09;59.43
58967;BME280;44744;51.894;5.080;2023-07-13T22:43:45;101889.11;;;19.09;59.26
58967;BME280;44744;51.894;5.080;2023-07-13T22:44:45;101884.54;;;19.08;59.52
58967;BME280;44744;51.894;5.080;2023-07-13T22:45:49;101887.09;;;19.08;59.40
58967;BME280;44744;51.894;5.080;2023-07-13T22:46:51;101886.58;;;19.07;59.54
58967;BME280;44744;51.894;5.080;2023-07-13T22:47:52;101884.28;;;19.07;59.53
58967;BME280;44744;51.894;5.080;2023-07-13T22:49:01;101888.60;;;19.06;59.58
58967;BME280;44744;51.894;5.080;2023-07-13T22:50:12;101889.92;;;19.06;59.60
58967;BME280;44744;51.894;5.080;2023-07-13T22:51:16;101888.19;;;19.05;59.63
58967;BME280;44744;51.894;5.080;2023-07-13T22:52:16;101885.29;;;19.03;59.76
58967;BME280;44744;51.894;5.080;2023-07-13T22:53:23;101887.48;;;19.02;59.81
58967;BME280;44744;51.894;5.080;2023-07-13T22:54:24;101883.84;;;19.01;59.82
58967;BME280;44744;51.894;5.080;2023-07-13T22:55:25;101883.28;;;19.01;59.81
58967;BME280;44744;51.894;5.080;2023-07-13T22:56:25;101881.84;;;19.01;59.79
58967;BME280;44744;51.894;5.080;2023-07-13T22:57:25;101882.98;;;19.00;59.92
58967;BME280;44744;51.894;5.080;2023-07-13T22:58:26;101885.17;;;19.00;59.93
58967;BME280;44744;51.894;5.080;2023-07-13T22:59:27;101883.85;;;18.98;60.04
58967;BME280;44744;51.894;5.080;2023-07-13T23:00:30;101882.25;;;18.98;60.12
58967;BME280;44744;51.894;5.080;2023-07-13T23:01:32;101884.69;;;18.97;60.16
58967;BME280;44744;51.894;5.080;2023-07-13T23:02:33;101882.57;;;18.96;60.31
58967;BME280;44744;51.894;5.080;2023-07-13T23:03:33;101882.70;;;18.94;60.37
58967;BME280;44744;51.894;5.080;2023-07-13T23:04:35;101881.83;;;18.94;60.49
58967;BME280;44744;51.894;5.080;2023-07-13T23:05:36;101881.63;;;18.94;60.42
58967;BME280;44744;51.894;5.080;2023-07-13T23:06:37;101879.30;;;18.94;60.55
58967;BME280;44744;51.894;5.080;2023-07-13T23:07:37;101881.61;;;18.94;60.56
58967;BME280;44744;51.894;5.080;2023-07-13T23:08:38;101879.35;;;18.93;60.55
58967;BME280;44744;51.894;5.080;2023-07-13T23:09:38;101879.70;;;18.94;60.71
58967;BME280;44744;51.894;5.080;2023-07-13T23:10:38;101882.60;;;18.93;60.64
58967;BME280;44744;51.894;5.080;2023-07-13T23:11:38;101880.30;;;18.93;60.56
58967;BME280;44744;51.894;5.080;2023-07-13T23:12:39;101879.71;;;18.91;60.74
58967;BME280;44744;51.894;5.080;2023-07-13T23:13:39;101879.94;;;18.90;60.68
58967;BME280;44744;51.894;5.080;2023-07-13T23:14:39;101876.95;;;18.89;60.79
58967;BME280;44744;51.894;5.080;2023-07-13T23:15:40;101878.69;;;18.88;60.85
58967;BME280;44744;51.894;5.080;2023-07-13T23:16:40;101878.25;;;18.86;60.90
58967;BME280;44744;51.894;5.080;2023-07-13T23:17:41;101877.42;;;18.85;60.94
58967;BME280;44744;51.894;5.080;2023-07-13T23:18:48;101875.58;;;18.84;60.82
58967;BME280;44744;51.894;5.080;2023-07-13T23:19:49;101877.96;;;18.83;60.89
58967;BME280;44744;51.894;5.080;2023-07-13T23:20:49;101876.93;;;18.82;61.01
58967;BME280;44744;51.894;5.080;2023-07-13T23:21:51;101875.38;;;18.82;60.85
58967;BME280;44744;51.894;5.080;2023-07-13T23:22:52;101871.66;;;18.81;61.03
58967;BME280;44744;51.894;5.080;2023-07-13T23:23:52;101872.46;;;18.80;60.79
58967;BME280;44744;51.894;5.080;2023-07-13T23:24:53;101873.46;;;18.78;60.86
58967;BME280;44744;51.894;5.080;2023-07-13T23:25:53;101873.74;;;18.76;60.95
58967;BME280;44744;51.894;5.080;2023-07-13T23:26:53;101871.02;;;18.74;60.89
58967;BME280;44744;51.894;5.080;2023-07-13T23:27:55;101871.41;;;18.74;60.84
58967;BME280;44744;51.894;5.080;2023-07-13T23:28:55;101867.60;;;18.72;60.87
58967;BME280;44744;51.894;5.080;2023-07-13T23:29:55;101866.58;;;18.69;60.86
58967;BME280;44744;51.894;5.080;2023-07-13T23:30:56;101866.80;;;18.69;60.95
58967;BME280;44744;51.894;5.080;2023-07-13T23:31:57;101864.85;;;18.68;60.94
58967;BME280;44744;51.894;5.080;2023-07-13T23:33:04;101865.63;;;18.67;60.83
58967;BME280;44744;51.894;5.080;2023-07-13T23:34:11;101862.17;;;18.66;60.95
58967;BME280;44744;51.894;5.080;2023-07-13T23:35:14;101862.83;;;18.64;61.00
58967;BME280;44744;51.894;5.080;2023-07-13T23:36:16;101860.79;;;18.63;60.97
58967;BME280;44744;51.894;5.080;2023-07-13T23:37:18;101862.46;;;18.62;61.02
58967;BME280;44744;51.894;5.080;2023-07-13T23:38:18;101861.25;;;18.61;61.09
58967;BME280;44744;51.894;5.080;2023-07-13T23:39:18;101860.44;;;18.60;61.17
58967;BME280;44744;51.894;5.080;2023-07-13T23:40:24;101863.41;;;18.59;61.12
58967;BME280;44744;51.894;5.080;2023-07-13T23:41:24;101864.02;;;18.58;61.16
58967;BME280;44744;51.894;5.080;2023-07-13T23:42:25;101862.16;;;18.56;61.12
58967;BME280;44744;51.894;5.080;2023-07-13T23:43:25;101863.65;;;18.55;61.19
58967;BME280;44744;51.894;5.080;2023-07-13T23:44:25;101864.27;;;18.54;61.15
58967;BME280;44744;51.894;5.080;2023-07-13T23:45:26;101860.31;;;18.52;61.22
58967;BME280;44744;51.894;5.080;2023-07-13T23:46:37;101858.88;;;18.50;61.37
58967;BME280;44744;51.894;5.080;2023-07-13T23:47:38;101858.98;;;18.48;61.44
58967;BME280;44744;51.894;5.080;2023-07-13T23:48:39;101855.64;;;18.47;61.51
58967;BME280;44744;51.894;5.080;2023-07-13T23:49:39;101854.05;;;18.47;61.55
58967;BME280;44744;51.894;5.080;2023-07-13T23:50:43;101856.75;;;18.47;61.45
58967;BME280;44744;51.894;5.080;2023-07-13T23:51:44;101857.51;;;18.46;61.64
58967;BME280;44744;51.894;5.080;2023-07-13T23:52:45;101854.53;;;18.46;61.51
58967;BME280;44744;51.894;5.080;2023-07-13T23:53:47;101850.88;;;18.44;61.58
58967;BME280;44744;51.894;5.080;2023-07-13T23:54:48;101854.79;;;18.44;61.59
58967;BME280;44744;51.894;5.080;2023-07-13T23:55:48;101850.73;;;18.43;61.68
58967;BME280;44744;51.894;5.080;2023-07-13T23:56:48;101854.33;;;18.43;61.70
58967;BME280;44744;51.894;5.080;2023-07-13T23:57:49;101852.36;;;18.43;61.83
58967;BME280;44744;51.894;5.080;2023-07-13T23:58:50;101851.14;;;18.42;61.77
58967;BME280;44744;51.894;5.080;2023-07-13T23:59:50;101849.77;;;18.42;61.67
